Summer Point, Vermont
Current Conditions -  °F | °C
As of 1:55 PM on Sunday 23 Nov 2014 (Local Time) from K6B0 Reporting Station
Broken Clouds Broken Clouds  
Wind Chill: 50°   Ceiling: 3200
Heat Index: 50°   Visibility: 10mi
Dew Point: 40°   Wind: 3mph
Humidity: 68%   Direction: 160°SSE
Pressure: 30.07"   Gusts: NA
Location:  44.0804°N, 73.3324°W
Report Text: K6B0 231855Z AUTO 16003KT 10SM BKN032 10/04 A3007 RMK AO2 T01010044
Loading
Personal Weather Stations






























Interactive Weather Map New forecast layout! Learn more

10-Day Weather Forecast

Advertisements
Track Severe Weather on mobile